createdAt,value
2023-03-30T00:01:15.096Z,76.44
2023-03-30T00:03:45.288Z,76.43
2023-03-30T00:06:14.487Z,76.96
2023-03-30T00:08:41.158Z,77.17
2023-03-30T00:11:08.956Z,77.28
2023-03-30T00:13:36.358Z,77.30
2023-03-30T00:16:03.846Z,77.45
2023-03-30T00:18:30.584Z,77.49
2023-03-30T00:20:58.769Z,77.77
2023-03-30T00:23:25.815Z,77.63
2023-03-30T00:25:52.532Z,77.96
2023-03-30T00:28:19.227Z,78.16
2023-03-30T00:30:47.396Z,78.11
2023-03-30T00:33:14.224Z,78.42
2023-03-30T00:35:40.986Z,78.30
2023-03-30T00:38:07.698Z,78.67
2023-03-30T00:40:34.797Z,78.73
2023-03-30T00:43:05.738Z,78.63
2023-03-30T00:45:33.548Z,78.60
2023-03-30T00:48:02.144Z,78.81
2023-03-30T00:50:35.209Z,78.63
2023-03-30T00:53:04.116Z,79.15
2023-03-30T00:55:31.105Z,78.72
2023-03-30T00:57:58.119Z,78.82
2023-03-30T01:00:24.994Z,79.20
2023-03-30T01:02:56.245Z,79.24
2023-03-30T01:05:24.438Z,79.44
2023-03-30T01:07:51.489Z,79.58
2023-03-30T01:10:18.466Z,79.58
2023-03-30T01:12:45.198Z,79.75
2023-03-30T01:15:12.039Z,79.71
2023-03-30T01:17:43.540Z,79.72
2023-03-30T01:20:22.667Z,79.85
2023-03-30T01:23:08.861Z,79.82
2023-03-30T01:25:38.832Z,79.69
2023-03-30T01:28:14.778Z,79.97
2023-03-30T01:30:45.668Z,80.06
2023-03-30T01:33:15.443Z,80.34
2023-03-30T01:35:53.322Z,80.47
2023-03-30T01:38:23.098Z,80.12
2023-03-30T01:41:02.392Z,80.44
2023-03-30T01:43:39.808Z,80.60
2023-03-30T01:46:14.843Z,80.55
2023-03-30T01:48:45.967Z,81.01
2023-03-30T01:51:15.056Z,81.12
2023-03-30T01:54:02.469Z,80.90
2023-03-30T01:56:29.520Z,81.33
2023-03-30T01:58:59.367Z,81.38
2023-03-30T02:01:26.468Z,81.29
2023-03-30T02:03:55.383Z,81.48
2023-03-30T02:06:24.788Z,81.64
2023-03-30T02:08:54.956Z,81.83
2023-03-30T02:11:23.356Z,81.89
2023-03-30T02:13:51.228Z,82.08
2023-03-30T02:16:20.468Z,81.89
2023-03-30T02:18:47.174Z,82.22
2023-03-30T02:21:14.081Z,82.31
2023-03-30T02:23:41.630Z,82.02
2023-03-30T02:26:09.091Z,82.36
2023-03-30T02:28:36.402Z,82.17
2023-03-30T02:31:04.202Z,82.37
2023-03-30T02:33:50.967Z,82.65
2023-03-30T02:36:28.279Z,82.81
2023-03-30T02:39:00.203Z,82.93
2023-03-30T02:41:34.171Z,82.77
2023-03-30T02:44:16.151Z,83.19
2023-03-30T02:46:50.233Z,83.32
2023-03-30T02:49:36.050Z,83.30
2023-03-30T02:52:09.037Z,83.12
2023-03-30T02:54:51.175Z,83.33
2023-03-30T02:57:21.717Z,83.48
2023-03-30T02:59:49.426Z,83.54
2023-03-30T03:02:22.068Z,83.59
2023-03-30T03:04:55.966Z,83.50
2023-03-30T03:07:45.284Z,83.75
2023-03-30T03:10:12.163Z,83.70
2023-03-30T03:12:38.932Z,84.00
2023-03-30T03:15:06.074Z,84.12
2023-03-30T03:17:39.253Z,83.85
2023-03-30T03:20:10.648Z,83.86
2023-03-30T03:22:37.506Z,84.32
2023-03-30T03:25:05.214Z,84.05
2023-03-30T03:28:07.444Z,83.98
2023-03-30T03:30:42.022Z,84.31
2023-03-30T03:33:28.716Z,84.08
2023-03-30T03:36:04.160Z,84.03
2023-03-30T03:38:36.134Z,83.91
2023-03-30T03:41:07.715Z,84.01
2023-03-30T03:44:14.660Z,84.10
2023-03-30T03:46:41.872Z,84.37
2023-03-30T03:52:58.898Z,84.21
2023-03-30T03:55:41.301Z,84.20
2023-03-30T03:58:44.217Z,84.19
2023-03-30T04:01:52.528Z,84.08
2023-03-30T04:05:36.179Z,84.36
2023-03-30T04:08:18.448Z,84.34
2023-03-30T04:14:20.466Z,84.60
2023-03-30T04:17:06.661Z,84.59
2023-03-30T04:19:56.611Z,84.69
2023-03-30T04:22:45.088Z,84.62
2023-03-30T04:25:40.859Z,84.71
2023-03-30T04:28:22.078Z,84.64
2023-03-30T04:31:01.295Z,84.74
2023-03-30T04:33:52.029Z,84.52
2023-03-30T04:36:51.133Z,84.57
2023-03-30T04:39:34.172Z,84.81
2023-03-30T04:42:14.466Z,84.50
2023-03-30T04:45:20.944Z,84.54
2023-03-30T04:48:10.614Z,84.61
2023-03-30T04:50:57.353Z,84.76
2023-03-30T04:53:50.015Z,84.65
2023-03-30T04:56:35.545Z,84.57
2023-03-30T04:59:27.279Z,84.82
2023-03-30T05:02:13.112Z,84.84
2023-03-30T05:05:06.009Z,85.07
2023-03-30T05:08:01.123Z,84.73
2023-03-30T05:10:36.491Z,84.73
2023-03-30T05:13:24.184Z,84.88
2023-03-30T05:16:10.552Z,85.08
2023-03-30T05:19:12.858Z,85.18
2023-03-30T05:22:08.663Z,85.19
2023-03-30T05:24:53.747Z,84.73
2023-03-30T05:27:40.845Z,85.15
2023-03-30T05:30:23.734Z,85.12
2023-03-30T05:33:25.262Z,84.95
2023-03-30T05:36:11.398Z,85.03
2023-03-30T05:38:49.358Z,84.81
2023-03-30T05:41:44.648Z,84.84
2023-03-30T05:44:30.058Z,84.82
2023-03-30T05:47:16.961Z,84.55
2023-03-30T05:50:03.638Z,84.77
2023-03-30T05:52:36.746Z,84.46
2023-03-30T05:55:15.715Z,84.52
2023-03-30T05:57:52.302Z,84.35
2023-03-30T06:00:36.242Z,84.55
2023-03-30T06:03:12.317Z,84.50
2023-03-30T06:05:39.514Z,84.43
2023-03-30T06:08:08.511Z,84.69
2023-03-30T06:10:36.183Z,84.58
2023-03-30T06:13:03.498Z,84.56
2023-03-30T06:15:39.839Z,84.53
2023-03-30T06:18:14.797Z,84.17
2023-03-30T06:20:50.031Z,84.51
2023-03-30T06:23:16.877Z,84.27
2023-03-30T06:25:47.627Z,84.35
2023-03-30T06:28:14.568Z,84.41
2023-03-30T06:30:42.594Z,84.34
2023-03-30T06:33:11.937Z,84.24
2023-03-30T06:35:49.674Z,84.03
2023-03-30T06:38:21.372Z,84.05
2023-03-30T06:40:48.696Z,83.87
2023-03-30T06:43:16.995Z,84.02
2023-03-30T06:46:06.389Z,83.64
2023-03-30T06:48:33.281Z,83.95
2023-03-30T06:51:19.971Z,83.55
2023-03-30T06:53:47.204Z,83.65
2023-03-30T06:56:14.361Z,83.45
2023-03-30T06:58:58.113Z,83.70
2023-03-30T07:01:25.990Z,83.50
2023-03-30T07:04:28.448Z,83.50
2023-03-30T07:07:15.767Z,83.53
2023-03-30T07:09:43.115Z,83.66
2023-03-30T07:12:10.025Z,83.48
2023-03-30T07:14:36.783Z,83.64
2023-03-30T07:17:04.056Z,83.64
2023-03-30T07:19:31.188Z,83.67
2023-03-30T07:21:58.045Z,83.65
2023-03-30T07:24:27.038Z,83.34
2023-03-30T07:26:53.868Z,83.09
2023-03-30T07:29:20.937Z,82.98
2023-03-30T07:31:52.324Z,82.94
2023-03-30T07:34:20.612Z,82.90
2023-03-30T07:36:54.608Z,82.61
2023-03-30T07:39:22.420Z,82.48
2023-03-30T07:41:51.064Z,82.50
2023-03-30T07:44:18.259Z,82.48
2023-03-30T07:46:45.349Z,81.86
2023-03-30T07:49:18.689Z,82.18
2023-03-30T07:51:46.122Z,81.49
2023-03-30T07:54:19.714Z,81.52
2023-03-30T07:57:13.017Z,80.96
2023-03-30T07:59:39.858Z,80.74
2023-03-30T08:02:16.547Z,80.63
2023-03-30T08:04:48.107Z,80.80
2023-03-30T08:07:20.633Z,80.52
2023-03-30T08:09:51.800Z,79.79
2023-03-30T08:12:18.578Z,79.76
2023-03-30T08:14:45.342Z,79.57
2023-03-30T08:17:12.609Z,79.46
2023-03-30T08:19:39.345Z,78.83
2023-03-30T08:22:06.277Z,78.52
2023-03-30T08:24:33.007Z,78.39
2023-03-30T08:26:59.790Z,78.37
2023-03-30T08:29:26.562Z,77.84
2023-03-30T08:31:54.062Z,77.83
2023-03-30T08:34:20.842Z,77.00
2023-03-30T08:36:47.650Z,76.82
2023-03-30T08:39:15.806Z,76.70
2023-03-30T08:41:44.020Z,76.56
2023-03-30T08:44:17.048Z,76.36
2023-03-30T08:46:43.787Z,76.21
2023-03-30T08:49:13.322Z,75.63
2023-03-30T08:51:40.366Z,75.73
2023-03-30T08:54:07.208Z,75.53
2023-03-30T08:56:37.015Z,74.93
2023-03-30T08:59:16.495Z,74.85
2023-03-30T09:01:48.117Z,74.81
2023-03-30T09:04:24.744Z,74.54
2023-03-30T09:06:59.661Z,74.35
2023-03-30T09:09:28.024Z,74.22
2023-03-30T09:12:09.053Z,73.86
2023-03-30T09:14:37.430Z,73.03
2023-03-30T09:17:17.760Z,72.95
2023-03-30T09:19:50.699Z,72.55
2023-03-30T09:22:17.752Z,72.25
2023-03-30T09:24:44.596Z,71.79
2023-03-30T09:27:31.621Z,71.60
2023-03-30T09:30:02.692Z,71.71
2023-03-30T09:32:31.773Z,71.39
2023-03-30T09:35:21.255Z,71.10
2023-03-30T09:37:48.333Z,70.61
2023-03-30T09:40:33.974Z,70.14
2023-03-30T09:43:09.127Z,70.03
2023-03-30T09:45:35.932Z,69.93
2023-03-30T09:48:08.671Z,69.92
2023-03-30T09:50:43.154Z,69.28
2023-03-30T09:53:20.575Z,69.22
2023-03-30T09:55:54.792Z,68.63
2023-03-30T09:58:26.971Z,68.06
2023-03-30T10:01:02.904Z,67.64
2023-03-30T10:03:29.948Z,67.40
2023-03-30T10:06:01.429Z,67.02
2023-03-30T10:08:28.263Z,66.30
2023-03-30T10:10:56.014Z,66.26
2023-03-30T10:13:33.267Z,65.93
2023-03-30T10:16:11.814Z,65.86
2023-03-30T10:18:42.331Z,65.27
2023-03-30T10:21:17.768Z,64.93
2023-03-30T10:23:46.259Z,65.14
2023-03-30T10:26:21.979Z,64.53
2023-03-30T10:28:56.797Z,64.20
2023-03-30T10:31:28.342Z,63.58
2023-03-30T10:33:56.926Z,63.73
2023-03-30T10:36:23.959Z,63.71
2023-03-30T10:38:50.798Z,63.62
2023-03-30T10:41:21.262Z,63.49
2023-03-30T10:43:50.258Z,63.29
2023-03-30T10:46:20.072Z,63.79
2023-03-30T10:48:53.736Z,63.13
2023-03-30T10:51:36.299Z,62.79
2023-03-30T10:54:05.992Z,62.68
2023-03-30T10:56:35.185Z,62.71
2023-03-30T10:59:20.902Z,62.57
2023-03-30T11:01:57.018Z,62.82
2023-03-30T11:04:47.350Z,62.63
2023-03-30T11:07:17.182Z,62.53
2023-03-30T11:09:45.018Z,62.96
2023-03-30T11:12:13.073Z,63.07
2023-03-30T11:14:57.769Z,62.91
2023-03-30T11:17:27.054Z,62.82
2023-03-30T11:19:56.066Z,62.86
2023-03-30T11:22:37.821Z,62.92
2023-03-30T11:25:07.686Z,62.79
2023-03-30T11:27:43.116Z,62.51
2023-03-30T11:30:14.580Z,62.63
2023-03-30T11:32:49.385Z,62.76
2023-03-30T11:35:19.779Z,62.72
2023-03-30T11:37:58.862Z,62.95
2023-03-30T11:40:29.313Z,62.50
2023-03-30T11:42:56.813Z,62.56
2023-03-30T11:45:29.183Z,62.64
2023-03-30T11:48:08.508Z,62.58
2023-03-30T11:51:07.464Z,62.44
2023-03-30T11:53:42.830Z,62.39
2023-03-30T11:56:14.104Z,62.09
2023-03-30T11:58:48.136Z,62.54
2023-03-30T12:01:25.014Z,62.22
2023-03-30T12:03:54.674Z,62.58
2023-03-30T12:06:36.092Z,62.72
2023-03-30T12:09:46.139Z,62.58
2023-03-30T12:12:46.384Z,62.76
2023-03-30T12:15:16.339Z,62.15
2023-03-30T12:17:44.785Z,62.46
2023-03-30T12:20:14.947Z,61.94
2023-03-30T12:23:08.368Z,62.27
2023-03-30T12:26:06.356Z,61.72
2023-03-30T12:29:26.324Z,62.23
2023-03-30T12:32:05.286Z,61.75
2023-03-30T12:34:41.445Z,61.61
2023-03-30T12:37:19.636Z,61.06
2023-03-30T12:40:10.896Z,60.43
2023-03-30T12:42:53.066Z,60.52
2023-03-30T12:45:25.149Z,60.07
2023-03-30T12:48:29.833Z,59.97
2023-03-30T12:51:26.276Z,60.54
2023-03-30T12:54:22.292Z,60.93
2023-03-30T12:56:54.901Z,60.79
2023-03-30T12:59:44.725Z,60.77
2023-03-30T13:02:34.234Z,60.26
2023-03-30T13:05:10.125Z,59.70
2023-03-30T13:07:40.319Z,58.81
2023-03-30T13:10:31.556Z,58.65
2023-03-30T13:13:10.299Z,58.46
2023-03-30T13:15:52.406Z,58.39
2023-03-30T13:19:01.053Z,58.70
2023-03-30T13:21:49.526Z,59.02
2023-03-30T13:25:02.180Z,59.87
2023-03-30T13:27:57.145Z,59.75
2023-03-30T13:35:34.669Z,59.86
2023-03-30T13:38:29.330Z,60.18
2023-03-30T13:41:15.362Z,60.39
2023-03-30T13:44:19.133Z,60.84
2023-03-30T13:47:05.166Z,61.02
2023-03-30T13:49:51.211Z,63.08
2023-03-30T14:53:42.030Z,84.19
2023-03-30T14:56:15.335Z,84.82
2023-03-30T14:58:44.572Z,85.37
2023-03-30T15:04:36.103Z,85.69
2023-03-30T15:07:02.875Z,85.80
2023-03-30T15:13:06.559Z,85.90
2023-03-30T15:15:33.624Z,85.68
2023-03-30T15:18:00.569Z,85.71
2023-03-30T15:20:30.533Z,86.03
2023-03-30T15:23:06.124Z,85.74
2023-03-30T15:25:34.270Z,86.06
2023-03-30T15:28:04.660Z,85.81
2023-03-30T15:33:33.383Z,85.87
2023-03-30T15:42:33.988Z,86.24
2023-03-30T15:45:20.426Z,85.91
2023-03-30T15:47:51.302Z,86.23
2023-03-30T15:53:25.094Z,85.72
2023-03-30T16:02:15.366Z,85.29
2023-03-30T16:23:15.227Z,84.44
2023-03-30T16:26:15.758Z,84.48
2023-03-30T16:28:44.891Z,84.62
2023-03-30T16:31:13.085Z,84.17
2023-03-30T16:33:39.963Z,84.33
2023-03-30T16:36:06.855Z,84.07
2023-03-30T16:38:33.697Z,84.47
2023-03-30T16:41:00.592Z,84.27
2023-03-30T16:43:27.515Z,83.90
2023-03-30T16:45:54.428Z,83.86
2023-03-30T16:48:22.015Z,83.76
2023-03-30T16:50:54.714Z,83.95
2023-03-30T16:53:24.719Z,83.46
2023-03-30T16:55:51.549Z,83.74
2023-03-30T16:58:18.515Z,83.93
2023-03-30T17:05:09.271Z,83.67
2023-03-30T17:33:38.651Z,84.18
2023-03-30T17:36:10.576Z,84.37
2023-03-30T17:38:43.456Z,84.68
2023-03-30T17:41:31.286Z,84.83
2023-03-30T17:44:15.482Z,85.11
2023-03-30T17:47:12.509Z,85.14
2023-03-30T17:56:30.884Z,85.61
2023-03-30T18:06:29.322Z,85.89
2023-03-30T18:37:54.016Z,86.72
2023-03-30T18:40:20.799Z,86.64
2023-03-30T18:42:47.621Z,86.92
2023-03-30T18:45:16.149Z,86.95
2023-03-30T18:47:43.571Z,86.93
2023-03-30T18:50:11.977Z,86.82
2023-03-30T20:07:53.598Z,86.50
2023-03-30T23:54:09.793Z,83.87
